createdAt,value
2022-08-06T00:00:06.839Z,5.80
2022-08-06T00:03:04.901Z,5.60
2022-08-06T00:05:36.942Z,5.20
2022-08-06T00:08:08.830Z,5.50
2022-08-06T00:10:38.338Z,6.20
2022-08-06T00:13:14.646Z,5.70
2022-08-06T00:16:09.022Z,5.40
2022-08-06T00:18:32.572Z,5.80
2022-08-06T00:21:01.451Z,5.70
2022-08-06T00:23:35.181Z,6.20
2022-08-06T00:26:19.054Z,5.80
2022-08-06T00:28:48.520Z,6.40
2022-08-06T00:31:17.089Z,5.80
2022-08-06T00:33:56.556Z,6.10
2022-08-06T00:36:28.176Z,6.10
2022-08-06T00:41:42.483Z,5.90
2022-08-06T00:44:30.863Z,5.80
2022-08-06T00:47:01.131Z,6.00
2022-08-06T00:49:49.110Z,6.20
2022-08-06T00:52:23.142Z,6.20
2022-08-06T00:54:55.253Z,5.80
2022-08-06T00:57:26.909Z,6.50
2022-08-06T00:59:59.078Z,6.50
2022-08-06T01:05:07.263Z,5.90
2022-08-06T01:07:51.876Z,5.80
2022-08-06T01:10:27.276Z,5.70
2022-08-06T01:13:00.255Z,6.10
2022-08-06T01:16:07.798Z,5.80
2022-08-06T01:18:30.544Z,6.00
2022-08-06T01:21:58.579Z,6.60
2022-08-06T01:24:03.195Z,5.90
2022-08-06T01:26:45.232Z,6.20
2022-08-06T01:29:15.984Z,6.10
2022-08-06T01:31:44.735Z,6.10
2022-08-06T01:34:31.215Z,6.10
2022-08-06T01:37:10.851Z,6.20
2022-08-06T01:40:01.729Z,6.30
2022-08-06T01:45:10.157Z,6.10
2022-08-06T01:47:53.773Z,5.90
2022-08-06T01:50:41.390Z,6.70
2022-08-06T01:53:30.128Z,5.90
2022-08-06T01:56:13.736Z,6.50
2022-08-06T01:58:56.869Z,6.10
2022-08-06T02:01:28.137Z,6.50
2022-08-06T02:04:20.839Z,6.90
2022-08-06T02:06:52.530Z,6.30
2022-08-06T02:09:27.751Z,6.50
2022-08-06T02:12:07.241Z,6.80
2022-08-06T02:14:43.516Z,6.90
2022-08-06T02:17:15.572Z,6.70
2022-08-06T02:20:03.988Z,6.80
2022-08-06T02:22:42.372Z,6.60
2022-08-06T02:25:21.792Z,6.70
2022-08-06T02:28:00.137Z,6.50
2022-08-06T02:30:42.526Z,6.60
2022-08-06T02:33:18.109Z,6.80
2022-08-06T02:35:52.313Z,6.40
2022-08-06T02:38:28.576Z,6.50
2022-08-06T02:41:23.749Z,6.30
2022-08-06T02:44:07.711Z,6.50
2022-08-06T02:46:51.885Z,6.40
2022-08-06T02:49:29.328Z,6.90
2022-08-06T02:52:32.624Z,6.30
2022-08-06T02:55:15.462Z,6.40
2022-08-06T02:57:58.293Z,6.50
2022-08-06T03:00:29.842Z,6.50
2022-08-06T03:03:02.924Z,6.80
2022-08-06T03:05:55.661Z,6.40
2022-08-06T03:08:28.218Z,7.10
2022-08-06T03:10:59.837Z,6.70
2022-08-06T03:13:36.290Z,6.50
2022-08-06T03:16:23.735Z,5.90
2022-08-06T03:19:54.764Z,6.10
2022-08-06T03:21:55.486Z,6.40
2022-08-06T03:24:27.920Z,5.90
2022-08-06T03:27:00.691Z,6.20
2022-08-06T03:29:30.597Z,6.60
2022-08-06T03:32:13.541Z,6.40
2022-08-06T03:34:52.322Z,6.70
2022-08-06T03:37:45.249Z,6.60
2022-08-06T03:40:14.148Z,6.30
2022-08-06T03:45:35.778Z,6.50
2022-08-06T03:48:07.131Z,6.60
2022-08-06T03:50:43.098Z,6.20
2022-08-06T03:53:25.046Z,6.60
2022-08-06T03:55:59.605Z,6.00
2022-08-06T03:58:30.106Z,5.70
2022-08-06T04:01:11.024Z,5.80
2022-08-06T04:03:41.275Z,6.40
2022-08-06T04:06:16.751Z,6.60
2022-08-06T04:08:50.544Z,6.40
2022-08-06T04:12:12.923Z,6.30
2022-08-06T04:14:10.720Z,5.80
2022-08-06T04:16:41.695Z,6.90
2022-08-06T04:19:15.767Z,5.90
2022-08-06T04:23:08.560Z,5.90
2022-08-06T04:24:34.238Z,6.10
2022-08-06T04:27:09.703Z,5.60
2022-08-06T04:29:56.750Z,5.90
2022-08-06T04:32:32.275Z,5.40
2022-08-06T04:36:07.268Z,5.30
2022-08-06T04:37:57.013Z,5.50
2022-08-06T04:40:35.795Z,5.50
2022-08-06T04:43:12.316Z,6.00
2022-08-06T04:46:18.587Z,5.30
2022-08-06T04:48:34.466Z,5.80
2022-08-06T04:51:10.439Z,4.80
2022-08-06T04:53:58.458Z,5.10
2022-08-06T04:56:33.312Z,5.00
2022-08-06T04:59:07.846Z,5.30
2022-08-06T05:01:40.685Z,5.60
2022-08-06T05:04:27.002Z,5.10
2022-08-06T05:07:10.560Z,5.30
2022-08-06T05:09:43.916Z,5.10
2022-08-06T05:12:34.533Z,5.10
2022-08-06T05:15:38.132Z,5.10
2022-08-06T05:19:21.256Z,5.20
2022-08-06T05:21:22.138Z,5.40
2022-08-06T05:24:11.484Z,5.10
2022-08-06T05:26:40.538Z,5.40
2022-08-06T05:29:12.337Z,5.30
2022-08-06T05:31:41.434Z,5.20
2022-08-06T05:34:16.470Z,5.40
2022-08-06T05:36:48.462Z,5.40
2022-08-06T05:39:57.327Z,5.60
2022-08-06T05:42:10.182Z,4.70
2022-08-06T05:44:39.689Z,5.00
2022-08-06T05:49:58.547Z,5.00
2022-08-06T05:52:55.425Z,5.40
2022-08-06T05:55:38.510Z,5.20
2022-08-06T05:58:21.361Z,5.00
2022-08-06T06:00:55.153Z,5.20
2022-08-06T06:03:33.537Z,5.20
2022-08-06T06:06:17.522Z,5.40
2022-08-06T06:08:57.864Z,5.00
2022-08-06T06:11:55.192Z,5.00
2022-08-06T06:14:41.898Z,5.20
2022-08-06T06:17:40.130Z,5.20
2022-08-06T06:20:57.904Z,4.80
2022-08-06T06:24:12.836Z,5.00
2022-08-06T06:26:51.905Z,4.90
2022-08-06T06:30:07.262Z,5.20
2022-08-06T06:32:49.166Z,5.30
2022-08-06T06:35:58.394Z,4.70
2022-08-06T06:38:43.528Z,4.80
2022-08-06T06:41:37.930Z,6.20
2022-08-06T06:44:17.302Z,8.00
2022-08-06T06:46:58.929Z,5.70
2022-08-06T06:50:00.050Z,5.00
2022-08-06T06:54:04.645Z,5.10
2022-08-06T06:57:19.480Z,5.10
2022-08-06T07:00:04.825Z,5.10
2022-08-06T07:02:47.667Z,5.10
2022-08-06T07:06:02.129Z,5.20
2022-08-06T07:09:15.259Z,5.70
2022-08-06T07:12:03.288Z,5.70
2022-08-06T07:14:36.270Z,4.80
2022-08-06T07:17:46.278Z,4.70
2022-08-06T07:20:00.789Z,5.30
2022-08-06T07:22:30.902Z,4.90
2022-08-06T07:25:06.370Z,7.30
2022-08-06T07:27:45.108Z,12.20
2022-08-06T07:30:25.631Z,5.20
2022-08-06T07:32:55.042Z,6.00
2022-08-06T07:35:25.496Z,5.40
2022-08-06T07:37:56.113Z,5.30
2022-08-06T07:40:32.448Z,4.90
2022-08-06T07:43:23.821Z,4.60
2022-08-06T07:45:56.598Z,4.90
2022-08-06T07:48:32.484Z,5.00
2022-08-06T07:51:05.044Z,4.80
2022-08-06T07:53:52.919Z,5.40
2022-08-06T07:56:27.609Z,5.70
2022-08-06T07:58:59.335Z,4.60
2022-08-06T08:01:36.520Z,5.20
2022-08-06T08:04:34.586Z,4.90
2022-08-06T08:07:12.929Z,4.80
2022-08-06T08:10:01.726Z,5.00
2022-08-06T08:15:17.596Z,4.80
2022-08-06T08:17:57.712Z,4.80
2022-08-06T08:20:34.402Z,4.60
2022-08-06T08:23:08.536Z,4.80
2022-08-06T08:25:57.676Z,4.70
2022-08-06T08:28:27.506Z,4.50
2022-08-06T08:31:00.264Z,6.80
2022-08-06T08:33:44.726Z,9.40
2022-08-06T08:36:15.179Z,16.10
2022-08-06T08:38:45.606Z,5.50
2022-08-06T08:41:23.101Z,5.10
2022-08-06T08:44:13.089Z,4.90
2022-08-06T08:46:57.618Z,5.50
2022-08-06T08:49:47.344Z,4.80
2022-08-06T08:52:18.780Z,6.30
2022-08-06T08:54:54.942Z,5.00
2022-08-06T08:59:02.534Z,6.90
2022-08-06T09:00:22.756Z,5.00
2022-08-06T09:02:57.248Z,6.50
2022-08-06T09:05:26.687Z,12.00
2022-08-06T09:08:04.344Z,5.80
2022-08-06T09:10:33.428Z,5.10
2022-08-06T09:13:22.791Z,7.10
2022-08-06T09:15:56.433Z,7.20
2022-08-06T09:18:28.187Z,5.10
2022-08-06T09:21:01.853Z,5.20
2022-08-06T09:23:57.642Z,5.70
2022-08-06T09:26:52.449Z,7.10
2022-08-06T09:29:23.690Z,5.20
2022-08-06T09:32:08.570Z,8.00
2022-08-06T09:34:50.230Z,7.00
2022-08-06T09:37:30.335Z,6.10
2022-08-06T09:40:20.011Z,6.00
2022-08-06T09:42:51.931Z,5.40
2022-08-06T09:45:42.112Z,5.80
2022-08-06T09:48:17.307Z,6.50
2022-08-06T09:50:51.466Z,4.80
2022-08-06T09:53:22.662Z,5.30
2022-08-06T09:55:57.850Z,9.00
2022-08-06T09:59:33.503Z,5.50
2022-08-06T10:04:04.334Z,4.50
2022-08-06T10:07:06.370Z,5.20
2022-08-06T10:09:41.439Z,5.00
2022-08-06T10:12:26.521Z,5.10
2022-08-06T10:14:56.241Z,4.70
2022-08-06T10:17:26.108Z,4.90
2022-08-06T10:20:18.405Z,5.00
2022-08-06T10:22:58.836Z,5.10
2022-08-06T10:25:31.111Z,4.30
2022-08-06T10:28:15.640Z,5.40
2022-08-06T10:30:45.671Z,5.00
2022-08-06T10:33:22.538Z,4.40
2022-08-06T10:36:08.695Z,4.60
2022-08-06T10:38:52.522Z,4.90
2022-08-06T10:41:59.582Z,8.60
2022-08-06T10:45:13.393Z,5.10
2022-08-06T10:48:59.271Z,4.80
2022-08-06T10:50:44.624Z,5.20
2022-08-06T10:54:01.355Z,5.70
2022-08-06T10:57:11.957Z,4.50
2022-08-06T10:59:53.666Z,4.50
2022-08-06T11:02:57.027Z,4.40
2022-08-06T11:05:48.112Z,4.90
2022-08-06T11:08:56.184Z,4.50
2022-08-06T11:11:42.764Z,4.60
2022-08-06T11:14:15.048Z,5.30
2022-08-06T11:16:59.091Z,4.80
2022-08-06T11:19:46.667Z,4.60
2022-08-06T11:22:38.880Z,4.50
2022-08-06T11:25:25.553Z,4.40
2022-08-06T11:28:05.744Z,4.20
2022-08-06T11:30:52.320Z,5.00
2022-08-06T11:33:36.699Z,5.00
2022-08-06T11:36:09.761Z,4.60
2022-08-06T11:38:51.727Z,4.60
2022-08-06T11:41:51.752Z,5.10
2022-08-06T11:44:27.359Z,4.90
2022-08-06T11:47:30.631Z,4.60
2022-08-06T11:50:27.615Z,5.50
2022-08-06T11:52:56.588Z,5.10
2022-08-06T11:55:27.063Z,5.00
2022-08-06T11:58:26.154Z,4.40
2022-08-06T12:00:59.744Z,4.10
2022-08-06T12:03:45.039Z,4.50
2022-08-06T12:06:29.207Z,4.50
2022-08-06T12:09:23.841Z,4.40
2022-08-06T12:12:23.866Z,4.50
2022-08-06T12:14:57.369Z,4.30
2022-08-06T12:17:44.692Z,4.00
2022-08-06T12:20:33.952Z,4.40
2022-08-06T12:23:07.218Z,4.30
2022-08-06T12:25:45.017Z,5.00
2022-08-06T12:28:18.309Z,4.80
2022-08-06T12:30:52.301Z,6.20
2022-08-06T12:33:24.858Z,8.00
2022-08-06T12:36:02.340Z,7.80
2022-08-06T12:38:34.244Z,4.80
2022-08-06T12:42:05.863Z,5.60
2022-08-06T12:46:05.942Z,4.50
2022-08-06T12:48:23.111Z,4.70
2022-08-06T12:51:15.832Z,4.60
2022-08-06T12:53:54.894Z,6.20
2022-08-06T12:56:31.950Z,4.10
2022-08-06T12:59:05.677Z,4.80
2022-08-06T13:02:10.131Z,5.50
2022-08-06T13:04:31.380Z,5.40
2022-08-06T13:07:02.925Z,4.70
2022-08-06T13:09:35.789Z,5.00
2022-08-06T13:14:02.105Z,5.00
2022-08-06T13:15:22.662Z,5.10
2022-08-06T13:18:41.425Z,4.80
2022-08-06T13:21:16.273Z,5.30
2022-08-06T13:23:49.430Z,5.20
2022-08-06T13:26:29.952Z,5.90
2022-08-06T13:30:34.536Z,5.10
2022-08-06T13:32:19.128Z,5.00
2022-08-06T13:34:59.355Z,5.30
2022-08-06T13:38:16.496Z,5.70
2022-08-06T13:40:56.752Z,5.50
2022-08-06T13:43:55.160Z,5.70
2022-08-06T13:46:28.840Z,6.10
2022-08-06T13:49:01.554Z,5.20
2022-08-06T13:51:35.344Z,5.70
2022-08-06T13:54:14.137Z,5.60
2022-08-06T13:56:48.801Z,5.60
2022-08-06T13:59:40.336Z,5.30
2022-08-06T14:02:12.746Z,6.00
2022-08-06T14:04:50.662Z,5.50
2022-08-06T14:07:20.832Z,5.30
2022-08-06T14:10:08.090Z,5.40
2022-08-06T14:12:40.371Z,5.70
2022-08-06T14:15:12.872Z,5.80
2022-08-06T14:17:45.928Z,5.70
2022-08-06T14:20:18.816Z,5.50
2022-08-06T14:22:55.530Z,5.40
2022-08-06T14:25:28.443Z,5.80
2022-08-06T14:27:58.485Z,6.00
2022-08-06T14:31:29.689Z,7.40
2022-08-06T14:35:04.730Z,6.20
2022-08-06T14:38:34.615Z,5.60
2022-08-06T14:41:50.292Z,6.70
2022-08-06T14:44:31.153Z,7.40
2022-08-06T14:47:00.291Z,8.10
2022-08-06T14:49:33.555Z,7.30
2022-08-06T14:52:24.121Z,7.50
2022-08-06T14:54:55.989Z,7.30
2022-08-06T14:58:03.891Z,7.70
2022-08-06T15:00:34.888Z,6.60
2022-08-06T15:03:13.548Z,7.00
2022-08-06T15:06:00.082Z,6.40
2022-08-06T15:08:34.182Z,7.20
2022-08-06T15:11:06.400Z,5.80
2022-08-06T15:13:43.557Z,5.90
2022-08-06T15:16:47.884Z,6.40
2022-08-06T15:19:21.018Z,8.40
2022-08-06T15:22:00.318Z,6.50
2022-08-06T15:24:30.634Z,6.30
2022-08-06T15:26:59.333Z,5.90
2022-08-06T15:29:34.689Z,5.90
2022-08-06T15:32:17.630Z,6.40
2022-08-06T15:34:48.834Z,5.90
2022-08-06T15:38:18.555Z,5.90
2022-08-06T15:41:52.166Z,6.10
2022-08-06T15:44:23.792Z,5.90
2022-08-06T15:46:59.677Z,6.30
2022-08-06T15:50:00.904Z,6.50
2022-08-06T15:52:18.203Z,6.40
2022-08-06T15:54:47.809Z,6.30
2022-08-06T15:57:19.818Z,6.40
2022-08-06T16:00:17.754Z,6.80
2022-08-06T16:02:50.689Z,6.10
2022-08-06T16:06:25.918Z,6.20
2022-08-06T16:08:59.587Z,7.00
2022-08-06T16:11:50.849Z,6.80
2022-08-06T16:14:19.906Z,6.20
2022-08-06T16:17:01.952Z,6.40
2022-08-06T16:19:30.843Z,7.70
2022-08-06T16:22:03.113Z,10.30
2022-08-06T16:24:32.420Z,7.60
2022-08-06T16:27:05.196Z,7.00
2022-08-06T16:29:35.817Z,7.00
2022-08-06T16:32:05.089Z,7.40
2022-08-06T16:34:37.107Z,6.70
2022-08-06T16:37:28.567Z,6.60
2022-08-06T16:42:44.594Z,6.30
2022-08-06T16:45:19.390Z,6.80
2022-08-06T16:48:21.804Z,6.70
2022-08-06T16:50:42.212Z,7.00
2022-08-06T16:54:07.779Z,6.80
2022-08-06T16:56:01.658Z,7.00
2022-08-06T16:58:34.341Z,6.60
2022-08-06T17:02:14.306Z,6.60
2022-08-06T17:09:21.251Z,6.50
2022-08-06T17:11:58.250Z,6.80
2022-08-06T17:14:33.010Z,6.30
2022-08-06T17:20:01.160Z,6.20
2022-08-06T17:22:32.139Z,6.70
2022-08-06T17:25:01.133Z,6.50
2022-08-06T17:27:43.527Z,6.50
2022-08-06T17:30:19.055Z,7.70
2022-08-06T17:32:48.482Z,8.10
2022-08-06T17:35:17.794Z,7.90
2022-08-06T17:37:51.593Z,7.30
2022-08-06T17:40:31.185Z,7.10
2022-08-06T17:43:12.525Z,6.80
2022-08-06T17:45:52.620Z,7.00
2022-08-06T17:48:38.468Z,7.00
2022-08-06T17:51:09.727Z,7.80
2022-08-06T17:53:53.800Z,6.70
2022-08-06T17:56:30.806Z,9.30
2022-08-06T17:59:59.876Z,7.30
2022-08-06T18:03:50.312Z,9.50
2022-08-06T18:07:12.227Z,13.60
2022-08-06T18:10:16.410Z,20.40
2022-08-06T18:12:48.569Z,21.30
2022-08-06T18:20:10.145Z,14.00
2022-08-06T18:23:39.763Z,9.50
2022-08-06T18:27:53.789Z,9.80
2022-08-06T18:31:00.192Z,10.40
2022-08-06T18:34:29.898Z,10.30
2022-08-06T18:37:05.610Z,8.70
2022-08-06T18:40:20.277Z,8.00
2022-08-06T18:42:42.459Z,8.10
2022-08-06T18:45:16.988Z,7.40
2022-08-06T18:47:49.670Z,7.20
2022-08-06T18:50:33.367Z,6.90
2022-08-06T18:53:02.095Z,7.10
2022-08-06T18:55:53.883Z,7.90
2022-08-06T18:58:20.090Z,8.20
2022-08-06T19:00:52.682Z,6.70
2022-08-06T19:03:37.754Z,7.70
2022-08-06T19:06:11.308Z,7.20
2022-08-06T19:08:41.121Z,9.80
2022-08-06T19:11:09.728Z,12.20
2022-08-06T19:14:17.163Z,8.90
2022-08-06T19:16:30.739Z,8.60
2022-08-06T19:18:59.730Z,9.90
2022-08-06T19:21:28.623Z,14.50
2022-08-06T19:24:02.803Z,10.90
2022-08-06T19:26:33.584Z,10.60
2022-08-06T19:29:02.673Z,10.40
2022-08-06T19:31:41.857Z,9.20
2022-08-06T19:39:53.950Z,23.50
2022-08-06T19:42:13.390Z,8.50
2022-08-06T19:45:04.214Z,7.10
2022-08-06T19:47:47.714Z,7.00
2022-08-06T19:50:19.393Z,7.00
2022-08-06T19:52:49.849Z,7.00
2022-08-06T19:56:06.477Z,8.00
2022-08-06T19:58:19.910Z,9.20
2022-08-06T20:01:32.576Z,8.10
2022-08-06T20:06:29.549Z,6.90
2022-08-06T20:09:29.332Z,7.60
2022-08-06T20:12:11.182Z,6.90
2022-08-06T20:14:40.445Z,6.90
2022-08-06T20:17:12.967Z,6.20
2022-08-06T20:20:06.711Z,8.90
2022-08-06T20:22:32.049Z,7.80
2022-08-06T20:25:17.943Z,7.30
2022-08-06T20:29:10.725Z,5.90
2022-08-06T20:30:39.891Z,6.00
2022-08-06T20:35:57.852Z,7.20
2022-08-06T20:38:33.538Z,8.30
2022-08-06T20:41:58.263Z,7.70
2022-08-06T20:44:25.407Z,6.90
2022-08-06T20:47:57.266Z,6.60
2022-08-06T20:50:28.112Z,8.00
2022-08-06T20:52:57.921Z,7.30
2022-08-06T20:55:28.493Z,6.10
2022-08-06T20:58:07.300Z,7.60
2022-08-06T21:00:36.290Z,6.50
2022-08-06T21:05:11.458Z,6.50
2022-08-06T21:05:53.975Z,6.50
2022-08-06T21:08:26.574Z,6.00
2022-08-06T21:11:00.470Z,6.10
2022-08-06T21:13:36.731Z,5.80
2022-08-06T21:16:28.737Z,6.00
2022-08-06T21:19:07.456Z,6.10
2022-08-06T21:21:39.052Z,5.80
2022-08-06T21:24:08.979Z,5.70
2022-08-06T21:26:38.157Z,6.60
2022-08-06T21:29:14.517Z,5.70
2022-08-06T21:31:59.045Z,6.00
2022-08-06T21:34:30.648Z,6.50
2022-08-06T21:37:02.100Z,5.40
2022-08-06T21:39:56.616Z,5.80
2022-08-06T21:42:27.114Z,5.50
2022-08-06T21:44:59.489Z,6.10
2022-08-06T21:47:36.592Z,5.50
2022-08-06T21:50:20.063Z,5.80
2022-08-06T21:52:55.764Z,6.00
2022-08-06T21:56:38.512Z,5.30
2022-08-06T21:58:13.308Z,5.70
2022-08-06T22:00:53.950Z,5.40
2022-08-06T22:04:34.702Z,5.70
2022-08-06T22:06:20.661Z,5.90
2022-08-06T22:09:01.060Z,6.20
2022-08-06T22:12:37.668Z,6.20
2022-08-06T22:14:29.000Z,5.80
2022-08-06T22:17:06.075Z,6.10
2022-08-06T22:19:39.264Z,5.90
2022-08-06T22:22:11.335Z,5.70
2022-08-06T22:24:49.927Z,6.00
2022-08-06T22:27:20.557Z,6.00
2022-08-06T22:30:08.833Z,5.50
2022-08-06T22:32:42.436Z,5.80
2022-08-06T22:35:14.299Z,6.50
2022-08-06T22:38:19.740Z,6.30
2022-08-06T22:40:38.444Z,5.70
2022-08-06T22:43:18.295Z,6.10
2022-08-06T22:46:04.672Z,5.40
2022-08-06T22:48:35.474Z,6.00
2022-08-06T22:51:15.753Z,5.70
2022-08-06T22:54:26.273Z,6.20
2022-08-06T22:56:38.366Z,6.50
2022-08-06T22:59:31.365Z,7.30
2022-08-06T23:02:07.609Z,6.30
2022-08-06T23:04:46.382Z,6.40
2022-08-06T23:07:21.409Z,6.50
2022-08-06T23:09:59.546Z,6.50
2022-08-06T23:12:31.314Z,6.30
2022-08-06T23:15:19.931Z,6.90
2022-08-06T23:18:00.349Z,6.60
2022-08-06T23:20:34.542Z,7.40
2022-08-06T23:23:04.819Z,7.20
2022-08-06T23:26:34.137Z,6.20
2022-08-06T23:34:00.238Z,7.00
2022-08-06T23:36:30.319Z,7.10
2022-08-06T23:38:59.050Z,7.80
2022-08-06T23:42:00.519Z,8.30
2022-08-06T23:44:18.417Z,7.90
2022-08-06T23:46:51.045Z,7.60
2022-08-06T23:49:27.349Z,7.50
2022-08-06T23:52:03.314Z,7.50
2022-08-06T23:54:33.522Z,7.80
2022-08-06T23:57:03.778Z,7.50
2022-08-06T23:59:45.327Z,7.90
